Terminal Aerodrome Forecast
Issued by NWS

Home | Current Version | Previous Version | Text Only | Print | Product List | Glossary On
Versions: 1 2 3 4 5 6 7 8 9 10 11 12 13 14 15 16 17 18 19 20 21
000
FTUS43 KFGF 210600 AAA
TAFBJI
TAF AMD
KBJI 210641Z 2107/2206 13007KT P6SM BKN250
     FM211500 11006KT P6SM -SHRA BKN070
     FM212100 VRB05KT P6SM VCSH BKN050=

USA.gov is the U.S. government's official web portal to all federal, state and local government web resources and services.